sensor_id;sensor_type;location;lat;lon;timestamp;pressure;altitude;pressure_sealevel;temperature;humidity
71778;BME280;59609;52.430;4.668;2023-02-18T14:09:54;101858.00;;;12.32;100.00
71778;BME280;59609;52.430;4.668;2023-02-18T14:12:24;101851.94;;;12.19;100.00
71778;BME280;59609;52.430;4.668;2023-02-18T14:14:51;101844.91;;;12.34;100.00
71778;BME280;59609;52.430;4.668;2023-02-18T14:19:52;101844.53;;;12.19;100.00
71778;BME280;59609;52.430;4.668;2023-02-18T14:22:36;101851.38;;;12.43;100.00
71778;BME280;59609;52.430;4.668;2023-02-18T14:27:35;101847.75;;;12.15;100.00
71778;BME280;59609;52.430;4.668;2023-02-18T14:30:16;101859.59;;;11.98;100.00
71778;BME280;59609;52.430;4.668;2023-02-18T14:32:44;101857.97;;;12.05;100.00
71778;BME280;59609;52.430;4.668;2023-02-18T14:35:22;101868.44;;;12.01;100.00
71778;BME280;59609;52.430;4.668;2023-02-18T14:46:17;101859.06;;;11.94;100.00
71778;BME280;59609;52.430;4.668;2023-02-18T14:51:31;101859.06;;;11.84;100.00
71778;BME280;59609;52.430;4.668;2023-02-18T14:54:03;101858.06;;;11.66;100.00
71778;BME280;59609;52.430;4.668;2023-02-18T14:56:32;101857.06;;;11.58;100.00
71778;BME280;59609;52.430;4.668;2023-02-18T14:59:03;101875.41;;;11.40;100.00
71778;BME280;59609;52.430;4.668;2023-02-18T15:01:33;101853.75;;;11.45;100.00
71778;BME280;59609;52.430;4.668;2023-02-18T15:04:00;101869.31;;;11.36;100.00
71778;BME280;59609;52.430;4.668;2023-02-18T15:06:34;101866.69;;;11.25;100.00
71778;BME280;59609;52.430;4.668;2023-02-18T15:09:11;101870.63;;;11.22;100.00
71778;BME280;59609;52.430;4.668;2023-02-18T15:14:24;101863.94;;;11.25;100.00
71778;BME280;59609;52.430;4.668;2023-02-18T15:16:50;101863.94;;;11.25;100.00
71778;BME280;59609;52.430;4.668;2023-02-18T15:19:19;101855.38;;;11.09;100.00
71778;BME280;59609;52.430;4.668;2023-02-18T15:21:48;101848.16;;;11.17;100.00
71778;BME280;59609;52.430;4.668;2023-02-18T15:26:50;101860.19;;;11.16;100.00
71778;BME280;59609;52.430;4.668;2023-02-18T15:29:25;101857.25;;;11.18;100.00
71778;BME280;59609;52.430;4.668;2023-02-18T15:31:53;101856.25;;;11.09;100.00
71778;BME280;59609;52.430;4.668;2023-02-18T15:36:54;101857.41;;;11.26;100.00
71778;BME280;59609;52.430;4.668;2023-02-18T15:39:21;101853.78;;;11.25;100.00
71778;BME280;59609;52.430;4.668;2023-02-18T15:41:51;101853.06;;;11.23;100.00
71778;BME280;59609;52.430;4.668;2023-02-18T15:44:26;101859.91;;;11.10;100.00
71778;BME280;59609;52.430;4.668;2023-02-18T15:46:52;101854.94;;;11.23;100.00
71778;BME280;59609;52.430;4.668;2023-02-18T15:49:20;101853.94;;;11.24;100.00
71778;BME280;59609;52.430;4.668;2023-02-18T15:51:47;101850.91;;;11.17;100.00
71778;BME280;59609;52.430;4.668;2023-02-18T15:54:19;101846.81;;;11.12;100.00
71778;BME280;59609;52.430;4.668;2023-02-18T15:56:51;101848.41;;;11.05;100.00
71778;BME280;59609;52.430;4.668;2023-02-18T16:01:50;101850.47;;;10.93;100.00
71778;BME280;59609;52.430;4.668;2023-02-18T16:04:16;101838.25;;;10.96;100.00
71778;BME280;59609;52.430;4.668;2023-02-18T16:06:48;101842.78;;;10.97;100.00
71778;BME280;59609;52.430;4.668;2023-02-18T16:09:30;101850.16;;;10.87;100.00
71778;BME280;59609;52.430;4.668;2023-02-18T16:11:59;101838.41;;;10.84;100.00
71778;BME280;59609;52.430;4.668;2023-02-18T16:14:47;101849.28;;;10.86;100.00
71778;BME280;59609;52.430;4.668;2023-02-18T16:17:19;101841.16;;;10.84;100.00
71778;BME280;59609;52.430;4.668;2023-02-18T16:19:56;101849.00;;;10.79;100.00
71778;BME280;59609;52.430;4.668;2023-02-18T16:24:53;101856.38;;;10.69;100.00
71778;BME280;59609;52.430;4.668;2023-02-18T16:27:19;101850.88;;;10.79;100.00
71778;BME280;59609;52.430;4.668;2023-02-18T16:29:49;101857.56;;;10.67;100.00
71778;BME280;59609;52.430;4.668;2023-02-18T16:32:15;101851.44;;;10.63;100.00
71778;BME280;59609;52.430;4.668;2023-02-18T16:34:40;101852.47;;;10.62;100.00
71778;BME280;59609;52.430;4.668;2023-02-18T16:37:05;101854.03;;;10.55;100.00
71778;BME280;59609;52.430;4.668;2023-02-18T16:39:50;101847.94;;;10.61;100.00
71778;BME280;59609;52.430;4.668;2023-02-18T16:42:18;101855.47;;;10.50;100.00
71778;BME280;59609;52.430;4.668;2023-02-18T16:44:44;101855.31;;;10.42;100.00
71778;BME280;59609;52.430;4.668;2023-02-18T16:47:14;101857.63;;;10.37;100.00
71778;BME280;59609;52.430;4.668;2023-02-18T16:49:41;101865.16;;;10.44;100.00
71778;BME280;59609;52.430;4.668;2023-02-18T16:52:09;101865.16;;;10.44;100.00
71778;BME280;59609;52.430;4.668;2023-02-18T16:54:39;101857.94;;;10.43;100.00
71778;BME280;59609;52.430;4.668;2023-02-18T16:57:05;101857.94;;;10.43;100.00
71778;BME280;59609;52.430;4.668;2023-02-18T16:59:30;101853.44;;;10.42;100.00
71778;BME280;59609;52.430;4.668;2023-02-18T17:01:56;101849.09;;;10.49;100.00
71778;BME280;59609;52.430;4.668;2023-02-18T17:04:21;101846.72;;;10.35;100.00
71778;BME280;59609;52.430;4.668;2023-02-18T17:06:49;101857.06;;;10.52;100.00
71778;BME280;59609;52.430;4.668;2023-02-18T17:09:18;101859.53;;;10.55;100.00
71778;BME280;59609;52.430;4.668;2023-02-18T17:11:46;101853.00;;;10.47;100.00
71778;BME280;59609;52.430;4.668;2023-02-18T17:14:13;101850.97;;;10.49;100.00
71778;BME280;59609;52.430;4.668;2023-02-18T17:16:39;101843.88;;;10.46;100.00
71778;BME280;59609;52.430;4.668;2023-02-18T17:19:05;101843.13;;;10.44;100.00
71778;BME280;59609;52.430;4.668;2023-02-18T17:21:30;101835.19;;;10.51;100.00
71778;BME280;59609;52.430;4.668;2023-02-18T17:23:55;101824.59;;;10.56;100.00
71778;BME280;59609;52.430;4.668;2023-02-18T17:26:23;101840.84;;;10.49;100.00
71778;BME280;59609;52.430;4.668;2023-02-18T17:28:49;101833.28;;;10.51;100.00
71778;BME280;59609;52.430;4.668;2023-02-18T17:31:36;101833.28;;;10.51;100.00
71778;BME280;59609;52.430;4.668;2023-02-18T17:34:05;101834.16;;;10.52;100.00
71778;BME280;59609;52.430;4.668;2023-02-18T17:36:32;101827.06;;;10.59;100.00
71778;BME280;59609;52.430;4.668;2023-02-18T17:38:59;101838.81;;;10.61;100.00
71778;BME280;59609;52.430;4.668;2023-02-18T17:41:24;101842.72;;;10.68;100.00
71778;BME280;59609;52.430;4.668;2023-02-18T17:43:50;101842.72;;;10.68;100.00
71778;BME280;59609;52.430;4.668;2023-02-18T17:46:17;101835.34;;;10.78;100.00
71778;BME280;59609;52.430;4.668;2023-02-18T17:48:44;101830.88;;;10.67;100.00
71778;BME280;59609;52.430;4.668;2023-02-18T17:51:24;101825.50;;;10.75;100.00
71778;BME280;59609;52.430;4.668;2023-02-18T17:53:50;101832.31;;;10.81;100.00
71778;BME280;59609;52.430;4.668;2023-02-18T17:56:16;101833.47;;;10.78;100.00
71778;BME280;59609;52.430;4.668;2023-02-18T17:58:41;101833.34;;;10.70;100.00
71778;BME280;59609;52.430;4.668;2023-02-18T18:01:08;101845.38;;;10.79;100.00
71778;BME280;59609;52.430;4.668;2023-02-18T18:03:34;101848.69;;;10.63;100.00
71778;BME280;59609;52.430;4.668;2023-02-18T18:06:00;101856.69;;;10.66;100.00
71778;BME280;59609;52.430;4.668;2023-02-18T18:08:26;101847.81;;;10.53;100.00
71778;BME280;59609;52.430;4.668;2023-02-18T18:10:54;101857.53;;;10.57;100.00
71778;BME280;59609;52.430;4.668;2023-02-18T18:13:21;101861.13;;;10.58;100.00
71778;BME280;59609;52.430;4.668;2023-02-18T18:15:47;101855.03;;;10.54;100.00
71778;BME280;59609;52.430;4.668;2023-02-18T18:18:13;101840.94;;;10.38;100.00
71778;BME280;59609;52.430;4.668;2023-02-18T18:20:42;101858.53;;;10.47;100.00
71778;BME280;59609;52.430;4.668;2023-02-18T18:23:11;101839.53;;;10.44;100.00
71778;BME280;59609;52.430;4.668;2023-02-18T18:25:39;101837.91;;;10.41;100.00
71778;BME280;59609;52.430;4.668;2023-02-18T18:28:05;101834.25;;;10.31;100.00
71778;BME280;59609;52.430;4.668;2023-02-18T18:30:33;101841.06;;;10.27;100.00
71778;BME280;59609;52.430;4.668;2023-02-18T18:33:00;101836.41;;;10.27;100.00
71778;BME280;59609;52.430;4.668;2023-02-18T18:35:32;101833.53;;;10.29;100.00
71778;BME280;59609;52.430;4.668;2023-02-18T18:37:58;101827.13;;;10.19;100.00
71778;BME280;59609;52.430;4.668;2023-02-18T18:40:26;101830.06;;;10.27;100.00
71778;BME280;59609;52.430;4.668;2023-02-18T18:42:53;101842.66;;;10.20;100.00
71778;BME280;59609;52.430;4.668;2023-02-18T18:47:50;101829.03;;;10.28;100.00
71778;BME280;59609;52.430;4.668;2023-02-18T18:50:16;101825.41;;;10.27;100.00
71778;BME280;59609;52.430;4.668;2023-02-18T18:52:42;101828.03;;;10.29;100.00
71778;BME280;59609;52.430;4.668;2023-02-18T18:55:28;101840.50;;;10.33;100.00
71778;BME280;59609;52.430;4.668;2023-02-18T18:57:55;101843.25;;;10.33;100.00
71778;BME280;59609;52.430;4.668;2023-02-18T19:00:32;101849.66;;;10.43;100.00
71778;BME280;59609;52.430;4.668;2023-02-18T19:03:00;101839.22;;;10.37;100.00
71778;BME280;59609;52.430;4.668;2023-02-18T19:05:29;101836.19;;;10.40;100.00
71778;BME280;59609;52.430;4.668;2023-02-18T19:07:56;101840.38;;;10.44;100.00
71778;BME280;59609;52.430;4.668;2023-02-18T19:10:25;101828.31;;;10.26;100.00
71778;BME280;59609;52.430;4.668;2023-02-18T19:12:51;101830.06;;;10.27;100.00
71778;BME280;59609;52.430;4.668;2023-02-18T19:15:21;101826.00;;;10.31;100.00
71778;BME280;59609;52.430;4.668;2023-02-18T19:17:49;101837.72;;;10.23;100.00
71778;BME280;59609;52.430;4.668;2023-02-18T19:20:18;101830.50;;;10.32;100.00
71778;BME280;59609;52.430;4.668;2023-02-18T19:22:44;101826.84;;;10.22;100.00
71778;BME280;59609;52.430;4.668;2023-02-18T19:25:09;101826.13;;;10.20;100.00
71778;BME280;59609;52.430;4.668;2023-02-18T19:27:40;101826.56;;;10.25;100.00
71778;BME280;59609;52.430;4.668;2023-02-18T19:30:08;101827.72;;;10.22;100.00
71778;BME280;59609;52.430;4.668;2023-02-18T19:32:35;101834.16;;;10.12;100.00
71778;BME280;59609;52.430;4.668;2023-02-18T19:35:00;101818.88;;;10.19;100.00
71778;BME280;59609;52.430;4.668;2023-02-18T19:37:25;101817.56;;;10.23;100.00
71778;BME280;59609;52.430;4.668;2023-02-18T19:39:51;101814.53;;;10.26;100.00
71778;BME280;59609;52.430;4.668;2023-02-18T19:42:18;101812.97;;;10.33;100.00
71778;BME280;59609;52.430;4.668;2023-02-18T19:44:44;101810.34;;;10.31;100.00
71778;BME280;59609;52.430;4.668;2023-02-18T19:47:09;101803.53;;;10.26;100.00
71778;BME280;59609;52.430;4.668;2023-02-18T19:49:34;101799.91;;;10.35;100.00
71778;BME280;59609;52.430;4.668;2023-02-18T19:52:00;101789.34;;;10.40;100.00
71778;BME280;59609;52.430;4.668;2023-02-18T19:54:29;101803.25;;;10.48;100.00
71778;BME280;59609;52.430;4.668;2023-02-18T19:56:55;101797.16;;;10.45;100.00
71778;BME280;59609;52.430;4.668;2023-02-18T19:59:20;101802.25;;;10.49;100.00
71778;BME280;59609;52.430;4.668;2023-02-18T20:01:46;101800.09;;;10.53;100.00
71778;BME280;59609;52.430;4.668;2023-02-18T20:04:11;101786.19;;;10.64;100.00
71778;BME280;59609;52.430;4.668;2023-02-18T20:06:36;101792.41;;;10.66;100.00
71778;BME280;59609;52.430;4.668;2023-02-18T20:09:02;101791.53;;;10.56;100.00
71778;BME280;59609;52.430;4.668;2023-02-18T20:11:30;101790.06;;;10.61;100.00
71778;BME280;59609;52.430;4.668;2023-02-18T20:13:55;101792.25;;;10.58;100.00
71778;BME280;59609;52.430;4.668;2023-02-18T20:16:20;101788.06;;;10.63;100.00
71778;BME280;59609;52.430;4.668;2023-02-18T20:18:46;101786.03;;;10.65;100.00
71778;BME280;59609;52.430;4.668;2023-02-18T20:21:11;101790.38;;;10.58;100.00
71778;BME280;59609;52.430;4.668;2023-02-18T20:23:37;101778.47;;;10.48;100.00
71778;BME280;59609;52.430;4.668;2023-02-18T20:26:09;101767.16;;;10.42;100.00
71778;BME280;59609;52.430;4.668;2023-02-18T20:28:36;101771.50;;;10.44;100.00
71778;BME280;59609;52.430;4.668;2023-02-18T20:31:03;101758.88;;;10.42;100.00
71778;BME280;59609;52.430;4.668;2023-02-18T20:33:29;101761.94;;;10.39;100.00
71778;BME280;59609;52.430;4.668;2023-02-18T20:35:55;101764.84;;;10.37;100.00
71778;BME280;59609;52.430;4.668;2023-02-18T20:38:20;101767.13;;;10.32;100.00
71778;BME280;59609;52.430;4.668;2023-02-18T20:40:46;101763.38;;;10.33;100.00
71778;BME280;59609;52.430;4.668;2023-02-18T20:43:11;101760.06;;;10.39;100.00
71778;BME280;59609;52.430;4.668;2023-02-18T20:45:37;101757.28;;;10.29;100.00
71778;BME280;59609;52.430;4.668;2023-02-18T20:48:02;101759.88;;;10.31;100.00
71778;BME280;59609;52.430;4.668;2023-02-18T20:50:27;101754.94;;;10.25;100.00
71778;BME280;59609;52.430;4.668;2023-02-18T20:52:53;101754.66;;;10.28;100.00
71778;BME280;59609;52.430;4.668;2023-02-18T20:55:19;101744.69;;;10.27;100.00
71778;BME280;59609;52.430;4.668;2023-02-18T20:57:46;101743.63;;;10.18;100.00
71778;BME280;59609;52.430;4.668;2023-02-18T21:00:12;101745.69;;;10.16;100.00
71778;BME280;59609;52.430;4.668;2023-02-18T21:02:37;101758.75;;;10.24;100.00
71778;BME280;59609;52.430;4.668;2023-02-18T21:05:03;101749.31;;;10.17;100.00
71778;BME280;59609;52.430;4.668;2023-02-18T21:07:28;101746.22;;;10.10;100.00
71778;BME280;59609;52.430;4.668;2023-02-18T21:09:54;101735.38;;;10.18;100.00
71778;BME280;59609;52.430;4.668;2023-02-18T21:12:19;101727.56;;;10.14;100.00
71778;BME280;59609;52.430;4.668;2023-02-18T21:14:45;101731.47;;;10.21;100.00
71778;BME280;59609;52.430;4.668;2023-02-18T21:17:10;101729.81;;;10.09;100.00
71778;BME280;59609;52.430;4.668;2023-02-18T21:19:35;101729.97;;;10.07;100.00
71778;BME280;59609;52.430;4.668;2023-02-18T21:22:01;101740.84;;;10.09;100.00
71778;BME280;59609;52.430;4.668;2023-02-18T21:24:26;101745.34;;;10.10;100.00
71778;BME280;59609;52.430;4.668;2023-02-18T21:26:52;101742.31;;;10.13;100.00
71778;BME280;59609;52.430;4.668;2023-02-18T21:29:18;101751.13;;;10.07;100.00
71778;BME280;59609;52.430;4.668;2023-02-18T21:31:43;101743.88;;;10.06;100.00
71778;BME280;59609;52.430;4.668;2023-02-18T21:34:12;101743.00;;;10.05;100.00
71778;BME280;59609;52.430;4.668;2023-02-18T21:36:38;101750.97;;;10.08;100.00
71778;BME280;59609;52.430;4.668;2023-02-18T21:39:06;101739.53;;;10.13;100.00
71778;BME280;59609;52.430;4.668;2023-02-18T21:41:34;101746.84;;;10.14;100.00
71778;BME280;59609;52.430;4.668;2023-02-18T21:44:00;101753.88;;;10.07;100.00
71778;BME280;59609;52.430;4.668;2023-02-18T21:46:28;101745.94;;;10.13;100.00
71778;BME280;59609;52.430;4.668;2023-02-18T21:48:54;101752.84;;;10.08;100.00
71778;BME280;59609;52.430;4.668;2023-02-18T21:54:19;101746.22;;;10.10;100.00
71778;BME280;59609;52.430;4.668;2023-02-18T21:56:45;101752.84;;;10.08;100.00
71778;BME280;59609;52.430;4.668;2023-02-18T21:59:11;101747.06;;;10.11;100.00
71778;BME280;59609;52.430;4.668;2023-02-18T22:01:36;101741.56;;;10.11;100.00
71778;BME280;59609;52.430;4.668;2023-02-18T22:04:02;101747.63;;;10.05;100.00
71778;BME280;59609;52.430;4.668;2023-02-18T22:06:27;101746.63;;;10.06;100.00
71778;BME280;59609;52.430;4.668;2023-02-18T22:08:52;101747.06;;;10.11;100.00
71778;BME280;59609;52.430;4.668;2023-02-18T22:11:18;101749.38;;;10.06;100.00
71778;BME280;59609;52.430;4.668;2023-02-18T22:13:43;101742.13;;;10.05;100.00
71778;BME280;59609;52.430;4.668;2023-02-18T22:16:09;101748.38;;;10.07;100.00
71778;BME280;59609;52.430;4.668;2023-02-18T22:18:34;101747.50;;;10.06;100.00
71778;BME280;59609;52.430;4.668;2023-02-18T22:21:04;101756.06;;;10.03;100.00
71778;BME280;59609;52.430;4.668;2023-02-18T22:23:30;101746.16;;;10.01;100.00
71778;BME280;59609;52.430;4.668;2023-02-18T22:25:55;101743.59;;;10.09;100.00
71778;BME280;59609;52.430;4.668;2023-02-18T22:28:21;101740.13;;;10.07;100.00
71778;BME280;59609;52.430;4.668;2023-02-18T22:30:46;101741.84;;;10.08;100.00
71778;BME280;59609;52.430;4.668;2023-02-18T22:33:11;101745.06;;;10.13;100.00
71778;BME280;59609;52.430;4.668;2023-02-18T22:35:37;101739.41;;;10.14;100.00
71778;BME280;59609;52.430;4.668;2023-02-18T22:38:02;101742.63;;;10.19;100.00
71778;BME280;59609;52.430;4.668;2023-02-18T22:40:27;101739.88;;;10.29;100.00
71778;BME280;59609;52.430;4.668;2023-02-18T22:42:53;101740.19;;;10.26;100.00
71778;BME280;59609;52.430;4.668;2023-02-18T22:45:18;101736.97;;;10.21;100.00
71778;BME280;59609;52.430;4.668;2023-02-18T22:47:43;101746.97;;;10.22;100.00
71778;BME280;59609;52.430;4.668;2023-02-18T22:50:09;101745.09;;;10.32;100.00
71778;BME280;59609;52.430;4.668;2023-02-18T22:52:35;101747.72;;;10.24;100.00
71778;BME280;59609;52.430;4.668;2023-02-18T22:55:00;101742.75;;;10.18;100.00
71778;BME280;59609;52.430;4.668;2023-02-18T22:57:25;101746.97;;;10.22;100.00
71778;BME280;59609;52.430;4.668;2023-02-18T22:59:51;101738.72;;;10.31;100.00
71778;BME280;59609;52.430;4.668;2023-02-18T23:02:16;101739.00;;;10.28;100.00
71778;BME280;59609;52.430;4.668;2023-02-18T23:04:42;101741.94;;;10.27;100.00
71778;BME280;59609;52.430;4.668;2023-02-18T23:07:07;101737.00;;;10.30;100.00
71778;BME280;59609;52.430;4.668;2023-02-18T23:09:32;101735.56;;;10.36;100.00
71778;BME280;59609;52.430;4.668;2023-02-18T23:11:58;101733.38;;;10.30;100.00
71778;BME280;59609;52.430;4.668;2023-02-18T23:14:25;101732.34;;;10.31;100.00
71778;BME280;59609;52.430;4.668;2023-02-18T23:16:57;101732.03;;;10.24;100.00
71778;BME280;59609;52.430;4.668;2023-02-18T23:19:43;101741.19;;;10.34;100.00
71778;BME280;59609;52.430;4.668;2023-02-18T23:22:10;101743.81;;;10.36;100.00
71778;BME280;59609;52.430;4.668;2023-02-18T23:24:39;101744.09;;;10.33;100.00
71778;BME280;59609;52.430;4.668;2023-02-18T23:27:05;101741.34;;;10.23;100.00
71778;BME280;59609;52.430;4.668;2023-02-18T23:29:32;101738.88;;;10.20;100.00
71778;BME280;59609;52.430;4.668;2023-02-18T23:31:58;101736.97;;;10.21;100.00
71778;BME280;59609;52.430;4.668;2023-02-18T23:34:23;101739.88;;;10.29;100.00
71778;BME280;59609;52.430;4.668;2023-02-18T23:36:48;101741.63;;;10.30;100.00
71778;BME280;59609;52.430;4.668;2023-02-18T23:39:20;101742.06;;;10.25;100.00
71778;BME280;59609;52.430;4.668;2023-02-18T23:41:46;101741.03;;;10.17;100.00
71778;BME280;59609;52.430;4.668;2023-02-18T23:44:14;101739.13;;;10.17;100.00
71778;BME280;59609;52.430;4.668;2023-02-18T23:46:40;101747.13;;;10.20;100.00
71778;BME280;59609;52.430;4.668;2023-02-18T23:49:06;101747.25;;;10.19;100.00
71778;BME280;59609;52.430;4.668;2023-02-18T23:51:32;101745.09;;;10.22;100.00
71778;BME280;59609;52.430;4.668;2023-02-18T23:54:01;101748.72;;;10.23;100.00
71778;BME280;59609;52.430;4.668;2023-02-18T23:56:27;101764.81;;;10.27;100.00
71778;BME280;59609;52.430;4.668;2023-02-18T23:58:56;101758.16;;;10.30;100.00
